Tiempo atmosférico en la estación meteorológica de Mosqueruela, Teruel (1505 m.)



Fecha
DESCASC
Temp. máxima en grados centígrados (hora)
DESCASC
Temp. mínima en grados centígrados (hora)
DESCASC
Temp. media en grados centígrados
DESCASC
Racha de viento máxima en m/sg (hora)
DESCASC
Velocidad máxima media en intervalos de 10 minutos(hora)
DESCASC
Precipitaciones diarias en mm
DESCASC
Precipitaciones de 00:00 a 06:00 en mm
DESCASC
Precipitaciones de 06:00 a 12:00 en mm
DESCASC
Precipitaciones de 12:00 a 18:00 en mm
DESCASC
Precipitaciones de 18:00 a 24:00 en mm
DESCASC
29-03-2020 12.4 (15:20) 1.1 (05:00) 6.7 9.44 (14:20) 6.11 (23:00) 0 0 0 0 0
28-03-2020 8 (16:20) -2.1 (00:00) 3 7.78 (21:30) 6.11 (21:20) 0 0 0 0 0
27-03-2020 4.8 (15:40) -4.1 (04:20) 0.4 8.61 (00:50) 6.94 (00:50) 0 0 0 0 0
26-03-2020 1.9 (15:10) -2.4 (-00:0) -0.3 16.11 (12:00) 7.78 (13:50) 0.6 0 0 0.6 0
25-03-2020 4.1 (17:00) -0.9 (-00:0) 1.6 7.22 (22:50) 4.72 (22:50) 3.8 0.8 2.2 0.6 0.2
24-03-2020 3 (00:10) 0 (00:00) 1.5 12.5 (06:40) 8.06 (06:40) 8.4 4 3.2 0.8 0.4
23-03-2020 4.5 (14:10) 1.9 (00:00) 3.2 11.67 (21:10) 6.39 (21:10) 18 3 2.2 4 8.8
22-03-2020 4.5 (14:10) 0.9 (07:20) 2.7 5.83 (22:10) 3.89 (07:20) 2.8 0 0.6 1.8 0.4
21-03-2020 8.2 (14:50) -1.4 (-00:0) 3.4 7.5 (10:20) 4.72 (10:10) 0.8 0 0 0 0.8
20-03-2020 9.2 (13:40) -1.4 (-00:0) 3.9 6.94 (14:20) 4.72 (14:30) 0 0 0 0 0
19-03-2020 10.5 (14:00) 0.6 (00:00) 5.6 6.39 (13:10) 3.89 (14:50) 0 0 0 0 0
18-03-2020 8.9 (14:30) 2 (00:00) 5.4 5 (16:50) 3.06 (15:10) 0 0 0 0 0
17-03-2020 6.1 (13:10) 2.9 (00:00) 4.5 13.06 (10:10) 8.61 (13:20) 59 31.6 22.2 5.2 0
16-03-2020 5.8 (19:40) 2.5 (00:00) 4.2 12.5 (22:40) 7.78 (10:20) 26.8 5.2 3.2 4 14.4
15-03-2020 12.3 (15:20) 3.8 (00:00) 8.1 9.17 (11:40) 6.94 (11:40) 3.4 0 0 0 3.4
14-03-2020 14.4 (12:30) 4.8 (00:00) 9.6 6.94 (08:50) 5.28 (08:50) 0 0 0 0 0
13-03-2020 13.3 (12:40) 5.8 (07:20) 9.6 8.61 (16:40) 5.83 (16:10) 0 0 0 0 0
12-03-2020 20.9 (14:10) 10.4 (00:00) 15.6 9.44 (14:00) 5.28 (15:10) 0 0 0 0 0
11-03-2020 21.1 (15:40) 10.6 (00:00) 15.9 12.22 (02:40) 8.06 (02:30) 0 0 0 0 0
10-03-2020 16.3 (14:40) 1.3 (00:00) 8.8 17.78 (05:10) 11.94 (04:40) 0 0 0 0 0
09-03-2020 8.8 (14:50) 1.8 (00:00) 5.3 25 (06:50) 17.22 (06:50) 0 0 0 0 0
08-03-2020 13.7 (13:30) 0.2 (00:00) 6.9 15.56 (00:10) 11.39 (02:30) 0 0 0 0 0
07-03-2020 6.6 (16:10) -2.2 (-00:0) 2.2 29.44 (08:10) 20.83 (09:20) 0 0 0 0 0
06-03-2020 2.8 (00:00) -1.8 (-00:0) 0.5 23.33 (22:10) 14.17 (10:30) 1.2 0 0 1.2 0
05-03-2020 12 (12:40) 2.8 (00:00) 7.4 22.22 (17:10) 13.33 (18:30) 0 0 0 0 0
04-03-2020 13.1 (16:00) 5.5 (02:50) 9.3 21.11 (05:40) 13.89 (05:40) 0 0 0 0 0
03-03-2020 9.4 (15:50) -1.5 (-00:0) 3.9 24.17 (11:10) 14.72 (11:10) 0 0 0 0 0
02-03-2020 7.2 (04:30) -1.5 (-00:0) 2.8 26.67 (04:30) 14.44 (04:30) 9.4 0.2 5 3.2 1
01-03-2020 11.8 (14:30) 2.4 (00:00) 7.1 19.72 (11:00) 11.67 (23:59) 0 0 0 0 0
29-02-2020 13.7 (13:50) 5.8 (00:00) 9.8 18.33 (05:20) 10.83 (05:20) 0 0 0 0 0

Gráficas

Temp. máximas Temp. mínimas Temp. medias Precipitaciones Rachas de viento máximas Velocidades máximas media en intervalos de 10 minutos

Datos horarios

Fecha y hora oficial Temperatura (ºC) Velocidad del viento (km/h) Dirección del viento Racha (km/h) Dirección de racha Precipitación (mm) Presión (hPa) Tendencia (hPa) Humedad (%)
2020-03-29 23:00:00 2.6 22 Oeste 30 Oeste 0 -- -- 76
2020-03-29 22:00:00 3.6 10 Oeste 25 Oeste 0 -- -- 68
2020-03-29 21:00:00 5.9 21 Oeste 25 Noroeste 0 -- -- 59
2020-03-29 20:00:00 7.9 10 Oeste 18 Norte 0 -- -- 54
2020-03-29 19:00:00 10 8 Norte 24 Oeste 0 -- -- 53
2020-03-29 18:00:00 9.9 17 Oeste 27 Oeste 0 -- -- 45
2020-03-29 17:00:00 10 15 Oeste 29 Norte 0 -- -- 44
2020-03-29 16:00:00 11 15 Noroeste 31 Noroeste 0 -- -- 42
2020-03-29 15:00:00 10.2 15 Oeste 34 Oeste 0 -- -- 45
2020-03-29 14:00:00 10.5 13 Noroeste 28 Oeste 0 -- -- 47
2020-03-29 13:00:00 10.8 12 Oeste 25 Oeste 0 -- -- 47
2020-03-29 12:00:00 9.6 15 Oeste 26 Oeste 0 -- -- 48
2020-03-29 11:00:00 9.4 7 Oeste 21 Oeste 0 -- -- 50
2020-03-29 10:00:00 7.2 14 Oeste 22 Oeste 0 -- -- 56
2020-03-29 09:00:00 4.9 14 Oeste 19 Oeste 0 -- -- 61
2020-03-29 08:00:00 2 15 Oeste 22 Oeste 0 -- -- 68
2020-03-29 07:00:00 2.2 15 Oeste 21 Oeste 0 -- -- 69
2020-03-29 06:00:00 1.6 14 Oeste 18 Oeste 0 -- -- 69
2020-03-29 05:00:00 1.1 11 Oeste 17 Oeste 0 -- -- 78
2020-03-29 03:00:00 1.7 3 Sudoeste 13 Oeste 0 -- -- 76
2020-03-29 01:00:00 1.6 6 Oeste 13 Oeste 0 -- -- 77
2020-03-29 00:00:00 2 14 Noroeste 20 Noroeste 0 -- -- 79
2020-03-28 23:00:00 2.4 16 Oeste 21 Noroeste 0 -- -- 80
2020-03-28 22:00:00 2.7 18 Oeste 28 Oeste 0 -- -- 79
2020-03-28 21:00:00 1.9 11 Oeste 17 Oeste 0 -- -- 83
2020-03-28 20:00:00 2.1 11 Noroeste 13 Oeste 0 -- -- 81
2020-03-28 19:00:00 4 4 Oeste 12 Nordeste 0 -- -- 74
2020-03-28 18:00:00 6.1 3 Norte 18 Noroeste 0 -- -- 64
2020-03-28 17:00:00 6.5 5 Nordeste 15 Este 0 -- -- 62
2020-03-28 16:00:00 7.3 9 Norte 16 Nordeste 0 -- -- 63
2020-03-28 15:00:00 6.6 6 Nordeste 18 Nordeste 0 -- -- 64
2020-03-28 14:00:00 3.9 3 Nordeste 16 Nordeste 0 -- -- 76
2020-03-28 13:00:00 3.8 8 Norte 19 Norte 0 -- -- 76
2020-03-28 12:00:00 3.8 8 Norte 17 Norte 0 -- -- 77
2020-03-28 11:00:00 2.3 10 Norte 20 Norte 0 -- -- 85
2020-03-28 10:00:00 1.6 13 Norte 20 Norte 0 -- -- 89
2020-03-28 09:00:00 0 14 Norte 22 Norte 0 -- -- 97
2020-03-28 08:00:00 -0.2 15 Norte 24 Norte 0 -- -- 97
2020-03-28 07:00:00 -0.5 8 Noroeste 17 Norte 0 -- -- 96
2020-03-28 06:00:00 -0.5 10 Noroeste 21 Noroeste 0 -- -- 94
2020-03-28 05:00:00 -0.5 8 Noroeste 19 Noroeste 0 -- -- 91
2020-03-28 04:00:00 -0.6 5 Noroeste 12 Noroeste 0 -- -- 87
2020-03-28 03:00:00 -0.8 5 Noroeste 8 Noroeste 0 -- -- 92
2020-03-28 02:00:00 -1.7 7 Noroeste 14 Noroeste 0 -- -- 92
2020-03-28 01:00:00 -1.6 10 Noroeste 14 Noroeste 0 -- -- 92
2020-03-28 00:00:00 -2.1 6 Noroeste 9 Noroeste 0 -- -- 91
2020-03-27 23:00:00 -1.7 7 Noroeste 9 Noroeste 0 -- -- 91
2020-03-27 22:00:00 -1.5 3 Oeste 6 Oeste 0 -- -- 88
2020-03-27 21:00:00 -1.6 3 Sudoeste 6 Sudoeste 0 -- -- 93
2020-03-27 20:00:00 -1.3 2 Oeste 4 Sudoeste 0 -- -- 91
2020-03-27 19:00:00 1.2 0 Calma 14 Este 0 -- -- 80
2020-03-27 18:00:00 2 7 Nordeste 21 Este 0 -- -- 77
2020-03-27 17:00:00 2.8 9 Este 22 Este 0 -- -- 67
2020-03-27 16:00:00 2.8 14 Nordeste 28 Nordeste 0 -- -- 73
2020-03-27 15:00:00 3 7 Nordeste 18 Este 0 -- -- 67
2020-03-27 14:00:00 2.5 10 Nordeste 16 Nordeste 0 -- -- 78
2020-03-27 13:00:00 1.1 8 Nordeste 17 Este 0 -- -- 82
2020-03-27 12:00:00 0.8 10 Nordeste 18 Este 0 -- -- 84
2020-03-27 11:00:00 -0.3 9 Nordeste 17 Nordeste 0 -- -- 88
2020-03-27 10:00:00 -0.8 8 Nordeste 15 Este 0 -- -- 94
2020-03-27 09:00:00 -0.9 4 Este 8 Este 0 -- -- 91
2020-03-27 08:00:00 -2.5 3 Este 7 Este 0 -- -- 97
2020-03-27 07:00:00 -2.8 2 Noroeste 12 Este 0 -- -- 95
2020-03-27 06:00:00 -3.3 3 Nordeste 12 Nordeste 0 -- -- 98
2020-03-27 05:00:00 -3.8 2 Noroeste 7 Nordeste 0 -- -- 99
2020-03-27 04:00:00 -3.8 3 Noroeste 14 Noroeste 0 -- -- 89
2020-03-27 03:00:00 -3.1 6 Noroeste 20 Noroeste 0 -- -- 86
2020-03-27 02:00:00 -2.9 10 Noroeste 24 Oeste 0 -- -- 85
2020-03-27 01:00:00 -2.2 23 Oeste 31 Oeste 0 -- -- 80
2020-03-27 00:00:00 -2.4 12 Oeste 24 Oeste 0 -- -- 79
2020-03-26 23:00:00 -2 15 Oeste 30 Oeste 0 -- -- 76
2020-03-26 22:00:00 -1.7 25 Oeste 32 Oeste 0 -- -- 79
2020-03-26 21:00:00 -1.3 9 Noroeste 23 Oeste 0 -- -- 75
2020-03-26 20:00:00 -0.8 17 Oeste 29 Oeste 0 -- -- 72
2020-03-26 19:00:00 -0.2 14 Noroeste 28 Noroeste 0 -- -- 67
2020-03-26 18:00:00 0.9 18 Noroeste 38 Noroeste 0 -- -- 69
2020-03-26 17:00:00 0.9 24 Noroeste 46 Noroeste 0 -- -- 71
2020-03-26 16:00:00 0.3 19 Noroeste 45 Norte 0 -- -- 80
2020-03-26 15:00:00 0.8 19 Noroeste 48 Noroeste 0.2 -- -- 84
2020-03-26 14:00:00 -0.3 23 Noroeste 48 Oeste 0.2 -- -- 87
2020-03-26 13:00:00 0.8 21 Noroeste 53 Oeste 0.2 -- -- 83
2020-03-26 12:00:00 0.9 27 Noroeste 58 Noroeste 0 -- -- 75
2020-03-26 11:00:00 0.6 20 Noroeste 53 Noroeste 0 -- -- 79
2020-03-26 10:00:00 0.5 20 Noroeste 42 Oeste 0 -- -- 79
2020-03-26 09:00:00 0.2 20 Noroeste 50 Noroeste 0 -- -- 84
2020-03-26 08:00:00 -1.6 13 Noroeste 33 Noroeste 0 -- -- 94
2020-03-26 07:00:00 -2.3 19 Noroeste 37 Oeste 0 -- -- 83
2020-03-26 06:00:00 -1 12 Noroeste 24 Oeste 0 -- -- 82
2020-03-26 05:00:00 -0.6 8 Oeste 23 Oeste 0 -- -- 86
2020-03-26 04:00:00 -0.5 8 Noroeste 18 Noroeste 0 -- -- 87
2020-03-26 03:00:00 -0.6 2 Norte 15 Noroeste 0 -- -- 88
2020-03-26 02:00:00 -0.2 10 Oeste 21 Noroeste 0 -- -- 83
2020-03-26 01:00:00 0.7 15 Oeste 24 Noroeste 0 -- -- 77
2020-03-26 00:00:00 1 12 Oeste 21 Oeste 0 -- -- 72
2020-03-25 23:00:00 1.2 17 Oeste 26 Oeste 0 -- -- 75
2020-03-25 22:00:00 0.1 14 Oeste 19 Oeste 0 -- -- 78
2020-03-25 21:00:00 -0.3 5 Oeste 9 Sudoeste 0 -- -- 91
2020-03-25 20:00:00 0.6 3 Sur 5 Sur 0.2 -- -- 98
2020-03-25 19:00:00 1 2 Sudeste 11 Este 0 -- -- 97
2020-03-25 18:00:00 2.2 6 Sudeste 15 Este 0 -- -- 95
2020-03-25 17:00:00 4.1 5 Sudeste 15 Sudeste 0 -- -- 87
2020-03-25 16:00:00 2.5 9 Sudeste 14 Sudeste 0 -- -- 94
2020-03-25 15:00:00 0.1 4 Sudeste 14 Este 0.2 -- -- 100
2020-03-25 14:00:00 0.1 4 Este 15 Este 0 -- -- 100
2020-03-25 13:00:00 0.1 9 Nordeste 26 Norte 0.4 -- -- 99
2020-03-25 12:00:00 0.6 7 Sudeste 14 Sudeste 0 -- -- 100
2020-03-25 11:00:00 0.5 5 Sudeste 10 Este 0 -- -- 99
2020-03-25 10:00:00 0 0 Calma -- -- 0.8 -- -- 100
2020-03-25 09:00:00 -0.5 0 Calma -- -- 1 -- -- 100
2020-03-25 08:00:00 -0.6 0 Calma -- -- 0.2 -- -- 100
2020-03-25 07:00:00 -0.9 0 Calma -- -- 0.2 -- -- 100
2020-03-25 06:00:00 -0.9 0 Calma -- -- 0.2 -- -- 100
2020-03-25 05:00:00 -0.8 0 Calma -- -- 0.2 -- -- 100
2020-03-25 04:00:00 -0.5 0 Calma -- -- 0.2 -- -- 100
2020-03-25 03:00:00 -0.1 0 Calma 10 Norte 0.2 -- -- 100
2020-03-25 02:00:00 -0.2 5 Norte 22 Nordeste 0 -- -- 100
2020-03-25 01:00:00 0.2 7 Este 17 Este 0 -- -- 100
2020-03-25 00:00:00 0.2 5 Este 13 Este 0.2 -- -- 100
2020-03-24 23:00:00 0.1 6 Nordeste 23 Nordeste 0 -- -- 100
2020-03-24 22:00:00 0.5 10 Nordeste 19 Nordeste 0 -- -- 100
2020-03-24 21:00:00 0.7 11 Nordeste 17 Nordeste 0 -- -- 100
2020-03-24 20:00:00 0.9 7 Nordeste 20 Nordeste 0.2 -- -- 100
2020-03-24 19:00:00 1.3 11 Nordeste 24 Nordeste 0 -- -- 100
2020-03-24 18:00:00 1.5 12 Norte 23 Nordeste 0.2 -- -- 100
2020-03-24 17:00:00 1.5 17 Nordeste 26 Nordeste 0 -- -- 100
2020-03-24 16:00:00 1.5 15 Nordeste 28 Nordeste 0.2 -- -- 100
2020-03-24 15:00:00 1.6 16 Nordeste 32 Nordeste 0 -- -- 100
2020-03-24 14:00:00 1.5 20 Nordeste 30 Nordeste 0 -- -- 100
2020-03-24 13:00:00 1.5 20 Nordeste 32 Nordeste 0.4 -- -- 100
2020-03-24 12:00:00 1.5 15 Nordeste 33 Nordeste 0.2 -- -- 100
2020-03-24 11:00:00 1.4 20 Nordeste 35 Nordeste 0 -- -- 100
2020-03-24 10:00:00 1.6 21 Nordeste 41 Nordeste 1 -- -- 100
2020-03-24 09:00:00 2.3 21 Nordeste 36 Nordeste 0.8 -- -- 100
2020-03-24 08:00:00 2.2 26 Nordeste 39 Nordeste 0.6 -- -- 100
2020-03-24 07:00:00 2.1 27 Nordeste 45 Nordeste 0.6 -- -- 100
2020-03-24 06:00:00 2.4 21 Nordeste 42 Nordeste 1 -- -- 100
2020-03-24 05:00:00 2.7 16 Nordeste 39 Nordeste 1.6 -- -- 100
2020-03-24 04:00:00 2.6 14 Nordeste 35 Nordeste 0.2 -- -- 100
2020-03-24 03:00:00 2.6 20 Nordeste 42 Nordeste 0.4 -- -- 100
2020-03-24 02:00:00 2.9 18 Nordeste 35 Nordeste 0 -- -- 100
2020-03-24 01:00:00 3 19 Nordeste 41 Nordeste 0.8 -- -- 100
2020-03-24 00:00:00 2.8 21 Este 38 Nordeste 2.6 -- -- 100
2020-03-23 23:00:00 2.8 16 Nordeste 39 Nordeste 2 -- -- 100
2020-03-23 22:00:00 3.4 22 Este 42 Nordeste 1.6 -- -- 100
2020-03-23 21:00:00 3.3 13 Nordeste 24 Nordeste 1.6 -- -- 100
2020-03-23 20:00:00 3.2 8 Nordeste 17 Nordeste 0.6 -- -- 100
2020-03-23 19:00:00 2.9 2 Oeste 6 Nordeste 0.4 -- -- 98
2020-03-23 18:00:00 2.7 0 Calma 7 Oeste 0.4 -- -- 95
2020-03-23 17:00:00 1.9 0 Calma 22 Este 3.4 -- -- 94
2020-03-23 16:00:00 4 10 Sur 18 Este 0 -- -- 98
2020-03-23 15:00:00 4.2 10 Este 20 Este 0.2 -- -- 99
2020-03-23 14:00:00 4.4 14 Este 22 Este 0 -- -- 99
2020-03-23 13:00:00 3.6 10 Este 18 Nordeste 0 -- -- 100
2020-03-23 12:00:00 3.4 7 Nordeste 22 Nordeste 0.2 -- -- 100
2020-03-23 11:00:00 3.1 13 Nordeste 21 Nordeste 0.2 -- -- 100
2020-03-23 10:00:00 3.2 8 Este 23 Nordeste 0 -- -- 100
2020-03-23 09:00:00 2.7 14 Nordeste 23 Nordeste 1 -- -- 100
2020-03-23 08:00:00 2.9 11 Nordeste 23 Nordeste 0.2 -- -- 100
2020-03-23 07:00:00 2.9 16 Nordeste 26 Este 0.6 -- -- 100
2020-03-23 06:00:00 2.8 15 Nordeste 22 Nordeste 0 -- -- 100
2020-03-23 05:00:00 2.4 11 Nordeste 21 Nordeste 0.6 -- -- 100
2020-03-23 04:00:00 2.6 9 Nordeste 23 Nordeste 0.2 -- -- 100
2020-03-23 03:00:00 2.7 13 Este 26 Nordeste 1.2 -- -- 100
2020-03-23 02:00:00 2.6 6 Este 10 Nordeste 0.8 -- -- 100
2020-03-23 01:00:00 2.6 3 Este 15 Nordeste 0.2 -- -- 100
2020-03-23 00:00:00 2.6 4 Nordeste 13 Nordeste 0 -- -- 100
2020-03-22 23:00:00 2.5 8 Nordeste 21 Este 0 -- -- 100
2020-03-22 22:00:00 2.6 7 Este 18 Nordeste 0 -- -- 100
2020-03-22 21:00:00 2.8 10 Nordeste 15 Este 0 -- -- 100
2020-03-22 20:00:00 2.7 8 Nordeste 17 Nordeste 0.4 -- -- 100
2020-03-22 19:00:00 3.3 6 Este 14 Este 0 -- -- 99
2020-03-22 18:00:00 3.4 7 Este 15 Este 0.2 -- -- 100
2020-03-22 17:00:00 3.4 7 Este 18 Este 0.8 -- -- 97
2020-03-22 16:00:00 3.8 7 Este 17 Nordeste 0.8 -- -- 98
2020-03-22 15:00:00 4 10 Nordeste 15 Nordeste 0 -- -- 95
2020-03-22 14:00:00 4.4 7 Este 14 Nordeste 0 -- -- 93
2020-03-22 13:00:00 3 8 Este 15 Nordeste 0 -- -- 99
2020-03-22 12:00:00 3 8 Nordeste 14 Nordeste 0.2 -- -- 99
2020-03-22 11:00:00 2.8 0 Calma 13 Noroeste 0 -- -- 95
2020-03-22 10:00:00 1.8 8 Noroeste 13 Noroeste 0.4 -- -- 96
2020-03-22 09:00:00 1.7 5 Norte 13 Noroeste 0 -- -- 93
2020-03-22 08:00:00 1.1 8 Oeste 19 Oeste 0 -- -- 86
2020-03-22 07:00:00 1.1 8 Noroeste 13 Norte 0 -- -- 84
2020-03-22 06:00:00 2.1 3 Norte 9 Oeste 0 -- -- 96
2020-03-22 05:00:00 2.1 0 Calma 4 Oeste 0 -- -- 97
2020-03-22 04:00:00 2.4 0 Calma 6 Noroeste 0 -- -- 100
2020-03-22 03:00:00 3 0 Calma 6 Sudeste 0 -- -- 100
2020-03-22 02:00:00 3.1 0 Calma 5 Sudeste 0 -- -- 100
2020-03-22 01:00:00 3.1 2 Nordeste 6 Sudoeste 0 -- -- 100
2020-03-22 00:00:00 3.3 3 Sudoeste 6 Sudoeste 0.2 -- -- 100
2020-03-21 23:00:00 3.4 2 Sudeste 5 Nordeste 0.2 -- -- 100
2020-03-21 22:00:00 3.5 3 Este 8 Este 0.2 -- -- 100
2020-03-21 21:00:00 3.4 4 Sudeste 12 Nordeste 0.2 -- -- 100
2020-03-21 20:00:00 3.7 4 Oeste 8 Oeste 0 -- -- 100
2020-03-21 19:00:00 3.8 4 Este 8 Nordeste 0 -- -- 100
2020-03-21 18:00:00 4 6 Nordeste 13 Este 0 -- -- 99
2020-03-21 17:00:00 4.9 9 Nordeste 14 Sudeste 0 -- -- 95
2020-03-21 16:00:00 6.4 11 Sur 18 Sudeste 0 -- -- 84
2020-03-21 15:00:00 7.7 14 Sudeste 23 Sudeste 0 -- -- 78
2020-03-21 14:00:00 6.6 12 Sudeste 19 Sur 0 -- -- 84
2020-03-21 13:00:00 5.8 13 Sudeste 24 Sur 0 -- -- 84
2020-03-21 12:00:00 5.6 13 Sur 25 Sur 0 -- -- 85
2020-03-21 11:00:00 4.1 13 Sur 27 Sur 0 -- -- 90
2020-03-21 10:00:00 4.1 17 Sur 26 Sur 0 -- -- 83
2020-03-21 09:00:00 3.8 14 Sur 22 Sur 0 -- -- 85
2020-03-21 08:00:00 1.4 3 Sudoeste 15 Sur 0 -- -- 88
2020-03-21 07:00:00 -0.4 4 Sudoeste 9 Sur 0 -- -- 81
2020-03-21 06:00:00 -1.3 0 Calma 5 Oeste 0 -- -- 78
2020-03-21 05:00:00 0.3 2 Sur 6 Sur 0 -- -- 65
2020-03-21 04:00:00 0.3 4 Sudoeste 8 Sudoeste 0 -- -- 74
2020-03-21 03:00:00 -0.1 3 Sur 5 Sudoeste 0 -- -- 95
2020-03-21 02:00:00 1.1 3 Sudeste 14 Este 0 -- -- 94
2020-03-21 01:00:00 1.5 4 Este 11 Este 0 -- -- 96
2020-03-21 00:00:00 1.7 5 Nordeste 9 Nordeste 0 -- -- 97
2020-03-20 23:00:00 2.3 4 Este 9 Este 0 -- -- 98
2020-03-20 22:00:00 2.9 4 Norte 10 Nordeste 0 -- -- 100
2020-03-20 21:00:00 3.2 5 Nordeste 10 Este 0 -- -- 100
2020-03-20 20:00:00 3.7 3 Este 9 Este 0 -- -- 99
2020-03-20 19:00:00 4 6 Nordeste 12 Este 0 -- -- 98
2020-03-20 18:00:00 4.7 6 Este 14 Este 0 -- -- 94
2020-03-20 17:00:00 5.8 7 Este 12 Sudeste 0 -- -- 84
2020-03-20 16:00:00 5.8 9 Este 21 Este 0 -- -- 84
2020-03-20 15:00:00 5.9 11 Este 25 Este 0 -- -- 82
2020-03-20 14:00:00 8.3 14 Este 24 Este 0 -- -- 73
2020-03-20 13:00:00 8.1 10 Sudeste 23 Este 0 -- -- 73
2020-03-20 12:00:00 7.4 10 Este 22 Nordeste 0 -- -- 70
2020-03-20 11:00:00 5.9 8 Este 15 Este 0 -- -- 76
2020-03-20 10:00:00 3.5 5 Este 13 Sudeste 0 -- -- 82
2020-03-20 09:00:00 1.7 5 Sudeste 9 Este 0 -- -- 89
2020-03-20 08:00:00 0.3 0 Calma 6 Oeste 0 -- -- 95
2020-03-20 07:00:00 -0.3 3 Sur 6 Sur 0 -- -- 97
2020-03-20 06:00:00 -1.3 0 Calma 4 Oeste 0 -- -- 89
2020-03-20 05:00:00 -0.5 5 Norte 9 Norte 0 -- -- 85
2020-03-20 04:00:00 0.8 4 Sudoeste 10 Sur 0 -- -- 74
2020-03-20 03:00:00 1.2 5 Sur 10 Sur 0 -- -- 73
2020-03-20 02:00:00 0.4 0 Calma 10 Sur 0 -- -- 70
2020-03-20 01:00:00 1.7 6 Sur 13 Sur 0 -- -- 65
2020-03-20 00:00:00 0.6 2 Sur 5 Sur 0 -- -- 93
2020-03-19 23:00:00 1.4 0 Calma 10 Sur 0 -- -- 95
2020-03-19 22:00:00 2.6 0 Calma 3 Sudoeste 0 -- -- 98
2020-03-19 21:00:00 2.9 0 Calma 4 Sudeste 0 -- -- 94
2020-03-19 20:00:00 4.2 3 Sudeste 10 Este 0 -- -- 94
2020-03-19 19:00:00 5.3 7 Este 14 Este 0 -- -- 89
2020-03-19 18:00:00 7.1 9 Este 17 Este 0 -- -- 82
2020-03-19 17:00:00 8.8 11 Este 20 Este 0 -- -- 70
2020-03-19 16:00:00 9.1 13 Este 21 Este 0 -- -- 67
2020-03-19 15:00:00 10.4 13 Este 21 Este 0 -- -- 60
2020-03-19 14:00:00 10.5 12 Este 23 Este 0 -- -- 60
2020-03-19 13:00:00 10.1 12 Este 21 Este 0 -- -- 61
2020-03-19 12:00:00 9.4 10 Nordeste 18 Este 0 -- -- 54
2020-03-19 11:00:00 8.5 8 Este 14 Este 0 -- -- 44
2020-03-19 10:00:00 7.6 4 Este 9 Este 0 -- -- 46
2020-03-19 09:00:00 6 2 Nordeste 3 Nordeste 0 -- -- 43
2020-03-19 08:00:00 3.2 3 Oeste 8 Sudoeste 0 -- -- 39
2020-03-19 07:00:00 1.5 4 Oeste 8 Oeste 0 -- -- 48
2020-03-19 06:00:00 2.7 4 Oeste 7 Sudoeste 0 -- -- 46
2020-03-19 05:00:00 2.4 4 Oeste 7 Oeste 0 -- -- 47
2020-03-19 04:00:00 3 3 Oeste 8 Oeste 0 -- -- 42
2020-03-19 03:00:00 2.9 4 Oeste 8 Oeste 0 -- -- 44
2020-03-19 02:00:00 3.3 4 Oeste 9 Noroeste 0 -- -- 45
2020-03-19 01:00:00 3 3 Oeste 8 Noroeste 0 -- -- 62
2020-03-19 00:00:00 3.3 4 Noroeste 14 Norte 0 -- -- 72
2020-03-18 23:00:00 4 7 Norte 15 Norte 0 -- -- 66
2020-03-18 22:00:00 3.9 6 Noroeste 17 Norte 0 -- -- 66
2020-03-18 21:00:00 4.7 8 Norte 14 Norte 0 -- -- 67
2020-03-18 20:00:00 5.4 8 Norte 13 Norte 0 -- -- 71
2020-03-18 19:00:00 6 7 Noroeste 12 Norte 0 -- -- 71
2020-03-18 18:00:00 7.4 4 Nordeste 14 Este 0 -- -- 73
2020-03-18 17:00:00 8.2 10 Nordeste 18 Nordeste 0 -- -- 64
2020-03-18 16:00:00 7.7 10 Nordeste 17 Nordeste 0 -- -- 68
2020-03-18 15:00:00 8.7 10 Este 15 Nordeste 0 -- -- 76
2020-03-18 14:00:00 8.6 5 Sudeste 10 Este 0 -- -- 68
2020-03-18 13:00:00 8.2 5 Nordeste 17 Este 0 -- -- 68
2020-03-18 12:00:00 8.1 8 Este 12 Este 0 -- -- 75
2020-03-18 11:00:00 7.1 2 Este 8 Este 0 -- -- 67
2020-03-18 10:00:00 6.8 3 Noroeste 10 Norte 0 -- -- 64
2020-03-18 09:00:00 5.3 4 Norte 10 Norte 0 -- -- 69
2020-03-18 08:00:00 3.1 6 Oeste 9 Oeste 0 -- -- 79
2020-03-18 07:00:00 2.8 5 Oeste 12 Oeste 0 -- -- 81
2020-03-18 06:00:00 2.6 0 Calma 7 Sudoeste 0 -- -- 80
2020-03-18 05:00:00 2.8 5 Oeste 8 Oeste 0 -- -- 80
2020-03-18 04:00:00 2.8 0 Calma 7 Noroeste 0 -- -- 83
2020-03-18 03:00:00 3.1 4 Oeste 15 Noroeste 0 -- -- 83
2020-03-18 02:00:00 3.1 6 Norte 13 Noroeste 0 -- -- 90
2020-03-18 01:00:00 2.8 2 Noroeste 17 Norte 0 -- -- 96
2020-03-18 00:00:00 2.9 7 Norte 11 Norte 0 -- -- 93
2020-03-17 23:00:00 3.3 4 Noroeste 17 Norte 0 -- -- 90
2020-03-17 22:00:00 3.3 8 Norte 16 Norte 0 -- -- 97
2020-03-17 21:00:00 3.7 7 Norte 20 Norte 0 -- -- 100
2020-03-17 20:00:00 4.3 7 Norte 20 Norte 0 -- -- 100
2020-03-17 19:00:00 4.5 12 Nordeste 23 Nordeste 0 -- -- 100
2020-03-17 18:00:00 5 16 Nordeste 30 Nordeste 0 -- -- 100
2020-03-17 17:00:00 5.5 17 Nordeste 30 Nordeste 0 -- -- 100
2020-03-17 16:00:00 5.3 16 Nordeste 37 Nordeste 0 -- -- 100
2020-03-17 15:00:00 5.2 19 Nordeste 41 Nordeste 0 -- -- 100
2020-03-17 14:00:00 5.9 22 Nordeste 46 Nordeste 2 -- -- 100
2020-03-17 13:00:00 6 26 Nordeste 40 Este 3.2 -- -- 100
2020-03-17 12:00:00 5.9 24 Nordeste 35 Nordeste 4.6 -- -- 100
2020-03-17 11:00:00 5.2 14 Este 47 Este 3.8 -- -- 100
2020-03-17 10:00:00 5.6 24 Este 43 Este 3.6 -- -- 100
2020-03-17 09:00:00 5.9 15 Este 45 Este 4 -- -- 100
2020-03-17 08:00:00 5.7 20 Este 40 Este 3.4 -- -- 100
2020-03-17 07:00:00 5.2 13 Nordeste 27 Nordeste 2.8 -- -- 100
2020-03-17 06:00:00 5 23 Nordeste 40 Nordeste 4.6 -- -- 100
2020-03-17 05:00:00 5.5 17 Nordeste 33 Este 4.2 -- -- 100
2020-03-17 04:00:00 5.5 16 Este 46 Este 7.6 -- -- 100
2020-03-17 03:00:00 6 16 Este 46 Nordeste 7.6 -- -- 100
2020-03-17 02:00:00 5.7 20 Este 44 Este 3.8 -- -- 100
2020-03-17 01:00:00 5.9 23 Este 39 Este 3.8 -- -- 100
2020-03-17 00:00:00 5.7 19 Este 40 Este 0 -- -- 100
2020-03-16 23:00:00 5.8 27 Este 45 Este 2.4 -- -- 100
2020-03-16 22:00:00 5.8 22 Este 41 Este 1 -- -- 100
2020-03-16 21:00:00 5.7 18 Este 39 Este 7 -- -- 100
2020-03-16 20:00:00 5.4 21 Este 40 Este 2.2 -- -- 100
2020-03-16 19:00:00 5.6 15 Este 38 Este 1.8 -- -- 100
2020-03-16 18:00:00 5.4 15 Este 27 Este 0.6 -- -- 100
2020-03-16 17:00:00 5.4 19 Este 31 Este 1.2 -- -- 100
2020-03-16 16:00:00 5.1 17 Este 32 Nordeste 1 -- -- 100
2020-03-16 15:00:00 4.9 17 Este 27 Nordeste 0.8 -- -- 100
2020-03-16 14:00:00 4.7 13 Este 31 Este 0.2 -- -- 100
2020-03-16 13:00:00 3.8 20 Este 33 Nordeste 0.2 -- -- 100
2020-03-16 12:00:00 3 14 Este 36 Este 0 -- -- 100
2020-03-16 11:00:00 2.8 24 Este 41 Este 0.2 -- -- 100
2020-03-16 10:00:00 2.9 26 Este 45 Este 0.6 -- -- 100
2020-03-16 09:00:00 3.7 21 Este 38 Este 0 -- -- 100
2020-03-16 08:00:00 3.6 17 Este 28 Este 0.2 -- -- 100
2020-03-16 07:00:00 3.6 14 Este 28 Sudeste 2.2 -- -- 100
2020-03-16 06:00:00 4.1 14 Sudeste 27 Sudeste 2.4 -- -- 100
2020-03-16 05:00:00 3.6 5 Este 16 Sudeste 1.4 -- -- 100
2020-03-16 04:00:00 3.4 8 Sudeste 19 Sur 0.2 -- -- 100
2020-03-16 03:00:00 2.5 8 Sur 21 Sur 0.8 -- -- 99
2020-03-16 02:00:00 2.8 9 Sur 19 Sur 0.2 -- -- 93
2020-03-16 01:00:00 3.2 10 Sur 15 Sur 0.2 -- -- 93
2020-03-16 00:00:00 3.8 8 Sur 13 Sudeste 0.2 -- -- 100
2020-03-15 23:00:00 4.1 8 Sudeste 31 Sur 2.2 -- -- 100
2020-03-15 22:00:00 4.6 17 Sur 27 Sur 1 -- -- 100
2020-03-15 21:00:00 5.4 15 Sur 22 Sur 0 -- -- 99
2020-03-15 20:00:00 5.8 11 Sur 21 Sur 0 -- -- 99
2020-03-15 19:00:00 6.6 13 Sur 20 Sur 0 -- -- 95
2020-03-15 18:00:00 7.8 13 Sur 22 Sur 0 -- -- 90
2020-03-15 17:00:00 9.2 14 Sudeste 26 Sur 0 -- -- 80
2020-03-15 16:00:00 10.8 17 Sudeste 29 Sudeste 0 -- -- 73
2020-03-15 15:00:00 12 19 Sur 29 Sudeste 0 -- -- 69
2020-03-15 14:00:00 10.8 19 Sur 28 Sudeste 0 -- -- 72
2020-03-15 13:00:00 11.6 21 Sur 32 Sur 0 -- -- 70
2020-03-15 12:00:00 10.1 22 Sur 33 Sur 0 -- -- 76
2020-03-15 11:00:00 11.8 19 Sur 29 Sur 0 -- -- 75
2020-03-15 10:00:00 11.9 15 Sur 26 Sur 0 -- -- 70
2020-03-15 09:00:00 9.8 14 Sudoeste 26 Sur 0 -- -- 79
2020-03-15 08:00:00 6.5 16 Sudoeste 21 Sudoeste 0 -- -- 80
2020-03-15 07:00:00 5.4 13 Sudoeste 18 Sudoeste 0 -- -- 66
2020-03-15 06:00:00 4.6 3 Sudoeste 9 Sudoeste 0 -- -- 55
2020-03-15 05:00:00 4.6 5 Sudoeste 15 Sur 0 -- -- 64
2020-03-15 04:00:00 5.3 7 Sudoeste 13 Sur 0 -- -- 84
2020-03-15 03:00:00 5.8 6 Sudoeste 17 Sudoeste 0 -- -- 88
2020-03-15 02:00:00 5.7 14 Sudoeste 18 Sudoeste 0 -- -- 91
2020-03-15 01:00:00 5.8 4 Sudoeste 8 Sudoeste 0 -- -- 92
2020-03-15 00:00:00 5.5 4 Oeste 8 Sudoeste 0 -- -- 91
2020-03-14 23:00:00 5.6 4 Sudoeste 13 Sudoeste 0 -- -- 92
2020-03-14 22:00:00 6.4 9 Sudoeste 13 Sudoeste 0 -- -- 93
2020-03-14 21:00:00 6.3 3 Sudoeste 6 Sudoeste 0 -- -- 89
2020-03-14 20:00:00 8.9 3 Sudeste 9 Este 0 -- -- 87
2020-03-14 19:00:00 9 0 Calma 15 Sudoeste 0 -- -- 85
2020-03-14 18:00:00 11.6 9 Sur 17 Sur 0 -- -- 76
2020-03-14 17:00:00 10.7 5 Sudeste 11 Sudeste 0 -- -- 78
2020-03-14 16:00:00 11.2 7 Este 19 Nordeste 0 -- -- 77
2020-03-14 15:00:00 12.8 9 Nordeste 18 Este 0 -- -- 74
2020-03-14 14:00:00 11.8 11 Este 19 Este 0 -- -- 75
2020-03-14 13:00:00 13.8 9 Este 22 Este 0 -- -- 68
2020-03-14 12:00:00 12.9 7 Este 21 Nordeste 0 -- -- 69
2020-03-14 11:00:00 13.1 4 Este 17 Nordeste 0 -- -- 64
2020-03-14 10:00:00 12.2 5 Noroeste 17 Oeste 0 -- -- 69
2020-03-14 09:00:00 9.7 17 Noroeste 25 Oeste 0 -- -- 79
2020-03-14 08:00:00 6.6 12 Norte 17 Norte 0 -- -- 87
2020-03-14 07:00:00 5.5 0 Calma 9 Sudoeste 0 -- -- 88
2020-03-14 06:00:00 6.5 0 Calma 16 Oeste 0 -- -- 84
2020-03-14 05:00:00 5.7 2 Noroeste 5 Oeste 0 -- -- 85
2020-03-14 04:00:00 5.5 3 Este 7 Sudoeste 0 -- -- 89
2020-03-14 03:00:00 5 0 Calma 9 Sudoeste 0 -- -- 93
2020-03-14 02:00:00 5.8 2 Oeste 4 Oeste 0 -- -- 90
2020-03-14 01:00:00 6.7 0 Calma 6 Nordeste 0 -- -- 92
2020-03-14 00:00:00 7.1 4 Norte 10 Nordeste 0 -- -- 91
2020-03-13 23:00:00 6.8 3 Sudoeste 16 Oeste 0 -- -- 92
2020-03-13 22:00:00 7 5 Sudoeste 13 Oeste 0 -- -- 93
2020-03-13 21:00:00 7.1 5 Nordeste 10 Norte 0 -- -- 93
2020-03-13 20:00:00 7.5 4 Este 9 Oeste 0 -- -- 88
2020-03-13 19:00:00 7.9 4 Sudeste 20 Sudeste 0 -- -- 87
2020-03-13 18:00:00 10.4 18 Sur 30 Sur 0 -- -- 77
2020-03-13 17:00:00 11.6 15 Sudeste 31 Sudeste 0 -- -- 72
2020-03-13 16:00:00 12.2 20 Sudeste 31 Sudeste 0 -- -- 68
2020-03-13 15:00:00 12.6 18 Sur 29 Sudeste 0 -- -- 67
2020-03-13 14:00:00 12.5 15 Sudeste 27 Sudeste 0 -- -- 67
2020-03-13 13:00:00 12.8 13 Sur 25 Sur 0 -- -- 66
2020-03-13 12:00:00 13 15 Sur 28 Sur 0 -- -- 60
2020-03-13 11:00:00 11 9 Este 16 Este 0 -- -- 77
2020-03-13 10:00:00 11.1 8 Este 17 Sudeste 0 -- -- 72
2020-03-13 09:00:00 10.7 5 Sudeste 9 Sudeste 0 -- -- 68
2020-03-13 08:00:00 7 4 Sudoeste 6 Sudoeste 0 -- -- 87
2020-03-13 07:00:00 7.1 0 Calma 6 Sudoeste 0 -- -- 84
2020-03-13 06:00:00 7.8 3 Sudeste 6 Oeste 0 -- -- 72
2020-03-13 05:00:00 7.5 6 Sudoeste 9 Sudoeste 0 -- -- 72
2020-03-13 04:00:00 8.1 4 Oeste 6 Sudoeste 0 -- -- 72
2020-03-13 03:00:00 9.5 5 Sur 10 Oeste 0 -- -- 69
2020-03-13 02:00:00 8.8 6 Oeste 9 Sudoeste 0 -- -- 70
2020-03-13 01:00:00 9.8 4 Sudoeste 8 Sudoeste 0 -- -- 65
2020-03-13 00:00:00 10.7 3 Sudoeste 13 Sudoeste 0 -- -- 66
2020-03-12 23:00:00 11.2 7 Sudoeste 15 Sudoeste 0 -- -- 66
2020-03-12 22:00:00 11.3 16 Sudoeste 20 Sudoeste 0 -- -- 64
2020-03-12 21:00:00 12.2 10 Sudoeste 19 Sudoeste 0 -- -- 63
2020-03-12 20:00:00 13.1 10 Sur 17 Sudoeste 0 -- -- 66
2020-03-12 19:00:00 14.9 10 Sur 15 Sur 0 -- -- 55
2020-03-12 18:00:00 17.6 10 Sur 21 Sur 0 -- -- 42
2020-03-12 17:00:00 19.1 14 Sur 25 Sudeste 0 -- -- 39
2020-03-12 16:00:00 20 14 Sudeste 27 Sur 0 -- -- 38
2020-03-12 15:00:00 20.5 18 Sudeste 29 Sudeste 0 -- -- 35
2020-03-12 14:00:00 20.6 15 Sudeste 34 Sur 0 -- -- 36
2020-03-12 13:00:00 20.2 14 Sudeste 27 Sudeste 0 -- -- 37
2020-03-12 12:00:00 20.3 15 Sudeste 27 Este 0 -- -- 36
2020-03-12 11:00:00 19.8 14 Sur 23 Sudeste 0 -- -- 38
2020-03-12 10:00:00 18.9 13 Sur 22 Sur 0 -- -- 39
2020-03-12 09:00:00 17.2 10 Sudoeste 14 Sur 0 -- -- 39
2020-03-12 08:00:00 13.2 14 Sudoeste 20 Sudoeste 0 -- -- 48
2020-03-12 07:00:00 10.9 16 Sudoeste 17 Sudoeste 0 -- -- 55
2020-03-12 06:00:00 10.6 12 Oeste 18 Sudoeste 0 -- -- 58
2020-03-12 05:00:00 13.1 15 Sudoeste 18 Sudoeste 0 -- -- 48
2020-03-12 04:00:00 11.9 12 Sudoeste 20 Sudoeste 0 -- -- 49
2020-03-12 03:00:00 12.4 15 Sudoeste 19 Sudoeste 0 -- -- 52
2020-03-12 02:00:00 10.9 14 Sudoeste 16 Sudoeste 0 -- -- 58
2020-03-12 01:00:00 10.8 10 Oeste 12 Sudoeste 0 -- -- 58
2020-03-12 00:00:00 10.6 8 Sudoeste 10 Oeste 0 -- -- 58
2020-03-11 23:00:00 12.2 10 Oeste 17 Oeste 0 -- -- 53
2020-03-11 22:00:00 13.2 15 Oeste 20 Oeste 0 -- -- 50
2020-03-11 21:00:00 11.2 12 Oeste 14 Oeste 0 -- -- 55
2020-03-11 20:00:00 12.3 9 Oeste 13 Noroeste 0 -- -- 50
2020-03-11 19:00:00 14.8 4 Sur 18 Noroeste 0 -- -- 44
2020-03-11 18:00:00 19.2 14 Noroeste 29 Oeste 0 -- -- 32
2020-03-11 17:00:00 20.1 17 Oeste 32 Oeste 0 -- -- 30
2020-03-11 16:00:00 20.8 16 Oeste 37 Noroeste 0 -- -- 29
2020-03-11 15:00:00 20.9 9 Noroeste 21 Sudoeste 0 -- -- 30
2020-03-11 14:00:00 20 14 Oeste 23 Sudoeste 0 -- -- 29
2020-03-11 13:00:00 20.8 9 Noroeste 18 Sur 0 -- -- 29
2020-03-11 12:00:00 19.3 7 Oeste 23 Oeste 0 -- -- 28
2020-03-11 11:00:00 17.7 16 Oeste 33 Noroeste 0 -- -- 30
2020-03-11 10:00:00 16 21 Oeste 34 Oeste 0 -- -- 30
2020-03-11 09:00:00 13.8 21 Oeste 37 Oeste 0 -- -- 30
2020-03-11 08:00:00 12.9 27 Oeste 35 Oeste 0 -- -- 35
2020-03-11 07:00:00 11.3 22 Oeste 37 Noroeste 0 -- -- 39
2020-03-11 06:00:00 11.1 25 Oeste 37 Oeste 0 -- -- 50
2020-03-11 05:00:00 10.8 21 Oeste 40 Oeste 0 -- -- 57
2020-03-11 04:00:00 11.2 25 Oeste 36 Oeste 0 -- -- 59
2020-03-11 03:00:00 11.8 24 Oeste 44 Oeste 0 -- -- 55
2020-03-11 02:00:00 11.4 18 Oeste 33 Oeste 0 -- -- 55
2020-03-11 01:00:00 11.7 25 Oeste 42 Noroeste 0 -- -- 56
2020-03-11 00:00:00 12.3 18 Oeste 39 Oeste 0 -- -- 53
2020-03-10 23:00:00 12.9 23 Noroeste 40 Oeste 0 -- -- 52
2020-03-10 22:00:00 12.9 24 Noroeste 36 Oeste 0 -- -- 51
2020-03-10 21:00:00 12.9 22 Oeste 35 Oeste 0 -- -- 54
2020-03-10 20:00:00 13.5 23 Oeste 36 Oeste 0 -- -- 50
2020-03-10 19:00:00 14 19 Oeste 37 Oeste 0 -- -- 47
2020-03-10 18:00:00 15.2 20 Oeste 39 Oeste 0 -- -- 46
2020-03-10 17:00:00 15.4 12 Oeste 30 Oeste 0 -- -- 44
2020-03-10 16:00:00 15.1 18 Noroeste 35 Noroeste 0 -- -- 45
2020-03-10 15:00:00 16 15 Noroeste 30 Noroeste 0 -- -- 41
2020-03-10 14:00:00 14.7 18 Noroeste 40 Oeste 0 -- -- 41
2020-03-10 13:00:00 13.8 24 Oeste 48 Oeste 0 -- -- 43
2020-03-10 12:00:00 12.6 20 Noroeste 50 Noroeste 0 -- -- 40
2020-03-10 11:00:00 11 26 Noroeste 48 Oeste 0 -- -- 34
2020-03-10 10:00:00 8.7 22 Noroeste 44 Oeste 0 -- -- 32
2020-03-10 09:00:00 7.8 22 Noroeste 48 Noroeste 0 -- -- 35
2020-03-10 08:00:00 6.6 25 Noroeste 54 Oeste 0 -- -- 37
2020-03-10 07:00:00 5.5 33 Oeste 56 Oeste 0 -- -- 43
2020-03-10 06:00:00 5.2 36 Oeste 64 Noroeste 0 -- -- 40
2020-03-10 05:00:00 4.4 41 Oeste 63 Oeste 0 -- -- 71
2020-03-10 04:00:00 2 19 Norte 36 Norte 0 -- -- 78
2020-03-10 03:00:00 1.8 18 Noroeste 34 Noroeste 0 -- -- 78
2020-03-10 02:00:00 1.6 16 Noroeste 35 Noroeste 0 -- -- 77
2020-03-10 01:00:00 1.7 19 Noroeste 47 Noroeste 0 -- -- 73
2020-03-10 00:00:00 1.8 13 Norte 54 Oeste 0 -- -- 74
2020-03-09 23:00:00 2.4 41 Oeste 76 Oeste 0 -- -- 75
2020-03-09 22:00:00 2.7 43 Oeste 80 Oeste 0 -- -- 74
2020-03-09 21:00:00 3.6 59 Oeste 87 Oeste 0 -- -- 66
2020-03-09 20:00:00 4 49 Oeste 76 Oeste 0 -- -- 65
2020-03-09 19:00:00 4.9 39 Oeste 68 Oeste 0 -- -- 60
2020-03-09 18:00:00 6.3 41 Oeste 69 Noroeste 0 -- -- 60
2020-03-09 17:00:00 7.5 37 Noroeste 66 Noroeste 0 -- -- 56
2020-03-09 16:00:00 7.7 39 Oeste 69 Noroeste 0 -- -- 48
2020-03-09 15:00:00 8.7 31 Noroeste 59 Noroeste 0 -- -- 47
2020-03-09 14:00:00 7.8 33 Noroeste 60 Noroeste 0 -- -- 46
2020-03-09 13:00:00 6.9 34 Oeste 73 Oeste 0 -- -- 54
2020-03-09 12:00:00 5.5 37 Oeste 72 Oeste 0 -- -- 56
2020-03-09 11:00:00 4 46 Oeste 73 Oeste 0 -- -- 68
2020-03-09 10:00:00 3.5 50 Oeste 79 Oeste 0 -- -- 70
2020-03-09 09:00:00 2.7 46 Noroeste 81 Noroeste 0 -- -- 78
2020-03-09 08:00:00 2.7 53 Noroeste 82 Noroeste 0 -- -- 80
2020-03-09 07:00:00 3 58 Oeste 90 Oeste 0 -- -- 78
2020-03-09 06:00:00 3.2 55 Oeste 85 Oeste 0 -- -- 78
2020-03-09 05:00:00 3.6 46 Oeste 78 Oeste 0 -- -- 80
2020-03-09 04:00:00 3.9 53 Oeste 75 Oeste 0 -- -- 81
2020-03-09 03:00:00 4.1 44 Oeste 67 Oeste 0 -- -- 84
2020-03-09 02:00:00 4.6 34 Oeste 55 Oeste 0 -- -- 78
2020-03-09 01:00:00 4.5 25 Noroeste 48 Noroeste 0 -- -- 70
2020-03-09 00:00:00 5.1 14 Noroeste 37 Oeste 0 -- -- 63
2020-03-08 23:00:00 6.1 24 Oeste 38 Noroeste 0 -- -- 57
2020-03-08 22:00:00 7 26 Oeste 44 Oeste 0 -- -- 57
2020-03-08 21:00:00 7.8 23 Oeste 41 Oeste 0 -- -- 53
2020-03-08 20:00:00 8.4 4 Sudoeste 20 Noroeste 0 -- -- 50
2020-03-08 19:00:00 9.4 11 Noroeste 23 Noroeste 0 -- -- 42
2020-03-08 18:00:00 10.5 14 Oeste 32 Oeste 0 -- -- 38
2020-03-08 17:00:00 12 18 Oeste 32 Oeste 0 -- -- 29
2020-03-08 16:00:00 13.2 17 Oeste 32 Sudoeste 0 -- -- 22
2020-03-08 15:00:00 13 20 Oeste 32 Oeste 0 -- -- 21
2020-03-08 14:00:00 13.5 17 Oeste 32 Sudoeste 0 -- -- 22
2020-03-08 13:00:00 13.1 12 Noroeste 29 Noroeste 0 -- -- 25
2020-03-08 12:00:00 12.9 10 Noroeste 28 Oeste 0 -- -- 28
2020-03-08 11:00:00 11.5 6 Nordeste 15 Norte 0 -- -- 32
2020-03-08 10:00:00 10.8 5 Nordeste 22 Noroeste 0 -- -- 28
2020-03-08 09:00:00 7.6 14 Oeste 35 Oeste 0 -- -- 27
2020-03-08 08:00:00 2.8 32 Oeste 41 Oeste 0 -- -- 56
2020-03-08 07:00:00 1.3 4 Este 19 Oeste 0 -- -- 59
2020-03-08 06:00:00 0.2 6 Oeste 8 Oeste 0 -- -- 58
2020-03-08 05:00:00 1.6 3 Nordeste 22 Oeste 0 -- -- 68
2020-03-08 04:00:00 4.2 17 Oeste 42 Oeste 0 -- -- 53
2020-03-08 03:00:00 4.2 31 Oeste 49 Oeste 0 -- -- 59
2020-03-08 02:00:00 4.1 37 Oeste 54 Oeste 0 -- -- 65
2020-03-08 01:00:00 3.8 39 Oeste 56 Oeste 0 -- -- 69
2020-03-08 00:00:00 4.1 42 Oeste 56 Oeste 0 -- -- 71
2020-03-07 23:00:00 3.5 46 Oeste 62 Oeste 0 -- -- 74
2020-03-07 22:00:00 3.4 48 Oeste 69 Oeste 0 -- -- 75
2020-03-07 21:00:00 3.4 53 Oeste 80 Oeste 0 -- -- 75
2020-03-07 20:00:00 3.7 58 Oeste 80 Oeste 0 -- -- 73
2020-03-07 19:00:00 4.1 48 Oeste 79 Oeste 0 -- -- 73
2020-03-07 18:00:00 5.2 58 Oeste 86 Oeste 0 -- -- 68
2020-03-07 17:00:00 5.1 58 Oeste 73 Oeste 0 -- -- 70
2020-03-07 16:00:00 6.4 28 Noroeste 71 Oeste 0 -- -- 65
2020-03-07 15:00:00 6.1 49 Oeste 75 Oeste 0 -- -- 66
2020-03-07 14:00:00 5.7 30 Noroeste 60 Noroeste 0 -- -- 67
2020-03-07 13:00:00 4.5 34 Noroeste 81 Oeste 0 -- -- 71
2020-03-07 12:00:00 3.1 51 Oeste 89 Oeste 0 -- -- 76
2020-03-07 11:00:00 2 53 Noroeste 88 Oeste 0 -- -- 78
2020-03-07 10:00:00 0.4 56 Oeste 103 Noroeste 0 -- -- 82
2020-03-07 09:00:00 0 72 Oeste 106 Oeste 0 -- -- 76
2020-03-07 08:00:00 -0.9 74 Oeste 102 Oeste 0 -- -- 79
2020-03-07 07:00:00 -1.4 67 Oeste 96 Oeste 0 -- -- 82
2020-03-07 06:00:00 -1.8 66 Oeste 92 Noroeste 0 -- -- 84
2020-03-07 05:00:00 -1.6 44 Noroeste 81 Noroeste 0 -- -- 86
2020-03-07 04:00:00 -1.7 39 Noroeste 77 Noroeste 0 -- -- 84
2020-03-07 03:00:00 -1.8 42 Noroeste 75 Noroeste 0 -- -- 82
2020-03-07 02:00:00 -2.1 41 Oeste 73 Oeste 0 -- -- 79
2020-03-07 01:00:00 -1.7 34 Noroeste 65 Oeste 0 -- -- 78
2020-03-07 00:00:00 -1.8 30 Noroeste 75 Noroeste 0 -- -- 80
2020-03-06 23:00:00 -1.5 35 Noroeste 84 Oeste 0 -- -- 72
2020-03-06 22:00:00 -1 41 Oeste 82 Oeste 0 -- -- 70
2020-03-06 21:00:00 -0.8 46 Noroeste 81 Oeste 0 -- -- 67
2020-03-06 20:00:00 -0.8 41 Oeste 66 Oeste 0 -- -- 68
2020-03-06 19:00:00 -0.9 44 Oeste 66 Oeste 0 -- -- 78
2020-03-06 18:00:00 -0.2 31 Oeste 68 Oeste 0 -- -- 74
2020-03-06 17:00:00 0.5 37 Oeste 64 Oeste 0 -- -- 70
2020-03-06 16:00:00 1.5 39 Oeste 68 Oeste 0 -- -- 68
2020-03-06 15:00:00 2.1 37 Oeste 76 Oeste 0.4 -- -- 67
2020-03-06 14:00:00 0.5 25 Noroeste 69 Noroeste 0.8 -- -- 81
2020-03-06 13:00:00 2.6 36 Oeste 66 Oeste 0 -- -- 59
2020-03-06 12:00:00 2.2 38 Oeste 80 Oeste 0 -- -- 64
2020-03-06 11:00:00 2.1 44 Oeste 78 Oeste 0 -- -- 66
2020-03-06 10:00:00 2 43 Oeste 72 Oeste 0 -- -- 63
2020-03-06 09:00:00 1.8 37 Oeste 69 Oeste 0 -- -- 71
2020-03-06 08:00:00 1.1 36 Oeste 69 Oeste 0 -- -- 74
2020-03-06 07:00:00 0.4 28 Oeste 57 Oeste 0 -- -- 79
2020-03-06 06:00:00 0.4 33 Oeste 55 Oeste 0 -- -- 75
2020-03-06 05:00:00 1.2 31 Oeste 57 Oeste 0 -- -- 78
2020-03-06 04:00:00 1.2 29 Oeste 58 Oeste 0 -- -- 80
2020-03-06 03:00:00 1.5 33 Oeste 69 Oeste 0 -- -- 79
2020-03-06 02:00:00 2.2 23 Oeste 49 Oeste 0 -- -- 79
2020-03-06 01:00:00 2.3 7 Oeste 31 Oeste 0 -- -- 88
2020-03-06 00:00:00 2.8 19 Oeste 42 Oeste 0 -- -- 86
2020-03-05 23:00:00 3.8 7 Noroeste 35 Sur 0 -- -- 77
2020-03-05 22:00:00 4.1 13 Oeste 63 Noroeste 0 -- -- 72
2020-03-05 21:00:00 4.4 40 Oeste 75 Oeste 0 -- -- 68
2020-03-05 20:00:00 4.7 35 Oeste 76 Noroeste 0 -- -- 66
2020-03-05 19:00:00 5.3 41 Oeste 74 Oeste 0 -- -- 60
2020-03-05 18:00:00 7.1 35 Oeste 80 Oeste 0 -- -- 57
2020-03-05 17:00:00 7.9 37 Oeste 73 Oeste 0 -- -- 56
2020-03-05 16:00:00 8.3 29 Oeste 75 Oeste 0 -- -- 66
2020-03-05 15:00:00 11.3 44 Oeste 71 Oeste 0 -- -- 60
2020-03-05 14:00:00 10.9 40 Oeste 62 Oeste 0 -- -- 64
2020-03-05 13:00:00 10.7 26 Sudoeste 46 Oeste 0 -- -- 68
2020-03-05 12:00:00 10.5 33 Sudoeste 56 Sudoeste 0 -- -- 68
2020-03-05 11:00:00 9.6 22 Oeste 36 Oeste 0 -- -- 72
2020-03-05 10:00:00 9.4 11 Oeste 23 Oeste 0 -- -- 68
2020-03-05 09:00:00 7.1 7 Noroeste 14 Oeste 0 -- -- 71
2020-03-05 08:00:00 6.1 3 Norte 9 Sudoeste 0 -- -- 72
2020-03-05 07:00:00 5.6 7 Sudoeste 19 Sudoeste 0 -- -- 75
2020-03-05 06:00:00 4.8 3 Sudoeste 7 Sudoeste 0 -- -- 82
2020-03-05 05:00:00 6.4 9 Noroeste 23 Noroeste 0 -- -- 76
2020-03-05 04:00:00 4.3 2 Sudoeste 8 Oeste 0 -- -- 81
2020-03-05 03:00:00 4.1 4 Oeste 9 Sudeste 0 -- -- 83
2020-03-05 02:00:00 5.5 7 Sudeste 24 Noroeste 0 -- -- 80
2020-03-05 01:00:00 6.2 19 Sudoeste 56 Oeste 0 -- -- 78
2020-03-05 00:00:00 6 10 Nordeste 51 Oeste 0 -- -- 80
2020-03-04 23:00:00 6.7 30 Oeste 58 Oeste 0 -- -- 79
2020-03-04 22:00:00 7 38 Oeste 51 Oeste 0 -- -- 79
2020-03-04 21:00:00 7.4 36 Oeste 50 Oeste 0 -- -- 78
2020-03-04 20:00:00 8.2 35 Oeste 47 Oeste 0 -- -- 76
2020-03-04 19:00:00 8.6 7 Sudoeste 22 Noroeste 0 -- -- 70
2020-03-04 18:00:00 11.3 15 Oeste 37 Oeste 0 -- -- 62
2020-03-04 17:00:00 12.2 14 Noroeste 36 Oeste 0 -- -- 59
2020-03-04 16:00:00 13.1 17 Oeste 32 Oeste 0 -- -- 57
2020-03-04 15:00:00 12.1 15 Oeste 45 Noroeste 0 -- -- 63
2020-03-04 14:00:00 12.2 28 Oeste 43 Oeste 0 -- -- 65
2020-03-04 13:00:00 12.2 21 Oeste 62 Oeste 0 -- -- 66
2020-03-04 12:00:00 10 39 Oeste 68 Oeste 0 -- -- 75
2020-03-04 11:00:00 8.7 47 Oeste 67 Oeste 0 -- -- 78
2020-03-04 10:00:00 8.5 40 Oeste 63 Oeste 0 -- -- 80
2020-03-04 09:00:00 7.9 28 Noroeste 56 Oeste 0 -- -- 84
2020-03-04 08:00:00 7.6 29 Oeste 60 Oeste 0 -- -- 86
2020-03-04 07:00:00 7 39 Oeste 73 Oeste 0 -- -- 89
2020-03-04 06:00:00 6.7 47 Oeste 76 Oeste 0 -- -- 86
2020-03-04 05:00:00 6.2 42 Oeste 74 Noroeste 0 -- -- 80
2020-03-04 04:00:00 5.7 41 Oeste 72 Oeste 0 -- -- 76
2020-03-04 03:00:00 5.5 41 Oeste 74 Oeste 0 -- -- 76
2020-03-04 02:00:00 5.9 38 Oeste 68 Oeste 0 -- -- 79
2020-03-04 01:00:00 6.2 32 Oeste 64 Noroeste 0 -- -- 80
2020-03-04 00:00:00 6.6 32 Oeste 56 Oeste 0 -- -- 78
2020-03-03 23:00:00 6.9 26 Oeste 52 Sudoeste 0 -- -- 79
2020-03-03 22:00:00 7.3 25 Oeste 57 Oeste 0 -- -- 77
2020-03-03 21:00:00 7.8 30 Oeste 67 Oeste 0 -- -- 68
2020-03-03 20:00:00 7.8 27 Oeste 63 Oeste 0 -- -- 72
2020-03-03 19:00:00 7.5 27 Oeste 68 Oeste 0 -- -- 73
2020-03-03 18:00:00 7.8 38 Oeste 74 Oeste 0 -- -- 72
2020-03-03 17:00:00 8.7 43 Oeste 84 Sudoeste 0 -- -- 66
2020-03-03 16:00:00 9.2 46 Oeste 79 Oeste 0 -- -- 63
2020-03-03 15:00:00 8.7 48 Oeste 80 Oeste 0 -- -- 67
2020-03-03 14:00:00 6.7 38 Oeste 72 Oeste 0 -- -- 79
2020-03-03 13:00:00 5.6 43 Oeste 66 Sudoeste 0 -- -- 80
2020-03-03 12:00:00 5.5 33 Oeste 87 Sudoeste 0 -- -- 76
2020-03-03 11:00:00 4.1 49 Oeste 78 Oeste 0 -- -- 75
2020-03-03 10:00:00 3.6 40 Oeste 66 Oeste 0 -- -- 75
2020-03-03 09:00:00 1.1 31 Oeste 60 Oeste 0 -- -- 85
2020-03-03 08:00:00 1.1 34 Oeste 66 Oeste 0 -- -- 71
2020-03-03 07:00:00 0.2 33 Oeste 63 Oeste 0 -- -- 68
2020-03-03 06:00:00 -0.2 33 Oeste 75 Oeste 0 -- -- 69
2020-03-03 05:00:00 -0.3 46 Oeste 82 Oeste 0 -- -- 71
2020-03-03 04:00:00 -0.9 35 Oeste 72 Oeste 0 -- -- 74
2020-03-03 03:00:00 -1 37 Oeste 68 Oeste 0 -- -- 74
2020-03-03 02:00:00 -1 44 Oeste 73 Oeste 0 -- -- 73
2020-03-03 01:00:00 -1.3 37 Oeste 72 Oeste 0 -- -- 78
2020-03-03 00:00:00 -1.5 41 Oeste 71 Oeste 0 -- -- 76
2020-03-02 23:00:00 -1.2 39 Oeste 71 Oeste 0 -- -- 79
2020-03-02 22:00:00 -0.7 39 Oeste 66 Oeste 0 -- -- 78
2020-03-02 21:00:00 -0.9 35 Oeste 61 Oeste 0.2 -- -- 80
2020-03-02 20:00:00 -0.9 31 Oeste 59 Oeste 0.2 -- -- 83
2020-03-02 19:00:00 -1.4 41 Oeste 77 Oeste 0.6 -- -- 83
2020-03-02 18:00:00 0.3 35 Oeste 60 Noroeste 0.4 -- -- 83
2020-03-02 17:00:00 0.3 33 Oeste 58 Oeste 1.8 -- -- 80
2020-03-02 16:00:00 2 40 Oeste 64 Oeste 0.2 -- -- 77
2020-03-02 15:00:00 3.5 28 Oeste 66 Oeste 0.4 -- -- 69
2020-03-02 14:00:00 3.4 29 Oeste 60 Oeste 0 -- -- 71
2020-03-02 13:00:00 2.2 32 Oeste 71 Oeste 0.4 -- -- 79
2020-03-02 12:00:00 4.9 40 Oeste 73 Oeste 0 -- -- 66
2020-03-02 11:00:00 4.2 36 Oeste 72 Oeste 0.4 -- -- 75
2020-03-02 10:00:00 3 28 Oeste 76 Oeste 1.2 -- -- 89
2020-03-02 09:00:00 5 29 Oeste 70 Sudoeste 3 -- -- 89
2020-03-02 08:00:00 5.9 34 Sudoeste 73 Sudoeste 0.4 -- -- 90
2020-03-02 07:00:00 5.8 35 Sudoeste 62 Sudoeste 0 -- -- 88
2020-03-02 06:00:00 5.9 40 Sudoeste 67 Sudoeste 0.2 -- -- 85
2020-03-02 05:00:00 6.4 44 Sudoeste 96 Sudoeste 0 -- -- 88
2020-03-02 04:00:00 7.1 47 Sudoeste 89 Sudoeste 0 -- -- 81
2020-03-02 03:00:00 6.9 46 Sudoeste 90 Sudoeste 0 -- -- 83
2020-03-02 02:00:00 6.5 44 Sudoeste 91 Sudoeste 0 -- -- 87
2020-03-02 01:00:00 6.3 39 Sudoeste 72 Sudoeste 0 -- -- 88
2020-03-02 00:00:00 6.3 42 Sudoeste 62 Sudoeste 0 -- -- 85
2020-03-01 23:00:00 6.4 29 Sudoeste 51 Sudoeste 0 -- -- 82
2020-03-01 22:00:00 6.1 24 Sudoeste 46 Sudoeste 0 -- -- 82
2020-03-01 21:00:00 5.3 18 Sur 32 Sur 0 -- -- 84
2020-03-01 20:00:00 5.9 17 Sudoeste 39 Sudoeste 0 -- -- 73
2020-03-01 19:00:00 6.8 15 Sur 34 Sudoeste 0 -- -- 66
2020-03-01 18:00:00 9.1 15 Sudoeste 59 Sudoeste 0 -- -- 59
2020-03-01 17:00:00 9.6 23 Oeste 54 Oeste 0 -- -- 58
2020-03-01 16:00:00 11 18 Oeste 69 Oeste 0 -- -- 53
2020-03-01 15:00:00 9.9 39 Oeste 66 Oeste 0 -- -- 54
2020-03-01 14:00:00 11.1 24 Oeste 63 Noroeste 0 -- -- 47
2020-03-01 13:00:00 10.5 28 Oeste 66 Sudoeste 0 -- -- 52
2020-03-01 12:00:00 9.1 35 Oeste 66 Oeste 0 -- -- 56
2020-03-01 11:00:00 8.1 36 Oeste 71 Oeste 0 -- -- 57
2020-03-01 10:00:00 6.7 20 Oeste 46 Sudoeste 0 -- -- 64
2020-03-01 09:00:00 4.9 31 Oeste 54 Oeste 0 -- -- 72
2020-03-01 08:00:00 3.4 17 Oeste 41 Oeste 0 -- -- 80
2020-03-01 07:00:00 2.4 12 Oeste 25 Oeste 0 -- -- 81
2020-03-01 06:00:00 2.7 3 Noroeste 30 Sudoeste 0 -- -- 78
2020-03-01 05:00:00 3.3 14 Oeste 39 Oeste 0 -- -- 75
2020-03-01 04:00:00 3.8 17 Oeste 45 Sudoeste 0 -- -- 75
2020-03-01 03:00:00 4.1 11 Sudoeste 31 Oeste 0 -- -- 74
2020-03-01 02:00:00 4.6 9 Sudoeste 41 Oeste 0 -- -- 74
2020-03-01 01:00:00 5.4 21 Sudoeste 46 Sudoeste 0 -- -- 72
2020-03-01 00:00:00 6 23 Oeste 46 Oeste 0 -- -- 71
2020-02-29 23:00:00 6.2 21 Oeste 43 Oeste 0 -- -- 71
2020-02-29 22:00:00 6.4 22 Oeste 47 Oeste 0 -- -- 72
2020-02-29 21:00:00 6.6 34 Oeste 51 Oeste 0 -- -- 71
2020-02-29 20:00:00 7.1 20 Oeste 40 Sudoeste 0 -- -- 70
2020-02-29 19:00:00 7.7 15 Sudoeste 39 Oeste 0 -- -- 68
2020-02-29 18:00:00 8.8 13 Sudoeste 39 Oeste 0 -- -- 65
2020-02-29 17:00:00 10.3 13 Oeste 35 Sudoeste 0 -- -- 61
2020-02-29 16:00:00 11.4 15 Sudoeste 39 Sudoeste 0 -- -- 53
2020-02-29 15:00:00 11.9 28 Sudoeste 50 Sudoeste 0 -- -- 49
2020-02-29 14:00:00 13.6 30 Sudoeste 51 Oeste 0 -- -- 44
2020-02-29 13:00:00 13.2 26 Sudoeste 50 Sudoeste 0 -- -- 44
2020-02-29 12:00:00 12.8 31 Sudoeste 63 Sudoeste 0 -- -- 45
2020-02-29 11:00:00 11.9 32 Sudoeste 55 Sudoeste 0 -- -- 46
2020-02-29 10:00:00 10.1 17 Sudoeste 33 Oeste 0 -- -- 45
2020-02-29 09:00:00 7.8 5 Sudoeste 53 Sudoeste 0 -- -- 47
2020-02-29 08:00:00 6.2 27 Oeste 55 Sudoeste 0 -- -- 59
2020-02-29 07:00:00 5.8 33 Sudoeste 61 Sudoeste 0 -- -- 67
2020-02-29 06:00:00 6 34 Sudoeste 66 Sudoeste 0 -- -- 67
2020-02-29 05:00:00 6.8 33 Sudoeste 60 Sudoeste 0 -- -- 56
2020-02-29 04:00:00 7.1 27 Sudoeste 51 Sur 0 -- -- 51
2020-02-29 03:00:00 6.7 20 Sudoeste 40 Sudoeste 0 -- -- 52
2020-02-29 02:00:00 6.5 20 Sur 33 Sur 0 -- -- 60
2020-02-29 01:00:00 6.7 23 Sur 35 Sur 0 -- -- 62
2020-02-29 00:00:00 6.3 21 Sur 32 Sur 0 -- -- 64